Time;durP1;ratioP1;P1;durP2;ratioP2;P2;SDS_P1;SDS_P2;PMS_P1;PMS_P2;Temp;Humidity;BMP_temperature;BMP_pressure;BME280_temperature;BME280_humidity;BME280_pressure;Samples;Min_cycle;Max_cycle;Signal;HPM_P1;HPM_P2
2022/12/29 00:00:00;;;;;;;6.70;3.43;;;8.20;99.90;;;;;;5021258;28;20469;-66
2022/12/29 00:02:26;;;;;;;3.03;2.13;;;8.20;99.90;;;;;;5022180;28;20500;-65
2022/12/29 00:04:52;;;;;;;19.90;10.70;;;8.20;99.90;;;;;;5022175;28;20626;-66
2022/12/29 00:07:18;;;;;;;3.90;3.13;;;8.10;99.90;;;;;;5021617;28;20516;-66
2022/12/29 00:09:43;;;;;;;3.97;2.60;;;8.10;99.90;;;;;;5027273;28;20200;-68
2022/12/29 00:12:09;;;;;;;5.77;3.30;;;8.20;99.90;;;;;;5022325;28;20185;-65
2022/12/29 00:17:19;;;;;;;1.90;1.80;;;8.20;99.90;;;;;;5022474;28;20238;-68
2022/12/29 00:36:36;;;;;;;7.63;5.07;;;8.30;99.90;;;;;;5017023;28;20419;-67
2022/12/29 00:44:38;;;;;;;2.17;1.97;;;8.30;99.90;;;;;;5012547;28;20758;-66
2022/12/29 00:47:04;;;;;;;1.67;1.57;;;8.20;99.90;;;;;;5025376;28;20560;-67
2022/12/29 00:49:30;;;;;;;11.47;4.03;;;8.30;99.90;;;;;;5016095;28;20234;-66
2022/12/29 00:52:10;;;;;;;2.77;2.13;;;8.30;99.90;;;;;;5025674;28;20404;-66
2022/12/29 00:54:38;;;;;;;23.07;11.97;;;8.20;99.90;;;;;;5024699;28;20439;-67
2022/12/29 00:57:06;;;;;;;3.90;2.90;;;8.30;99.90;;;;;;5016843;28;20484;-66
2022/12/29 00:59:32;;;;;;;13.23;8.33;;;8.20;99.90;;;;;;5021745;28;20414;-66
2022/12/29 01:01:58;;;;;;;2.07;1.77;;;8.30;99.90;;;;;;5013966;28;20490;-67
2022/12/29 01:04:25;;;;;;;4.10;2.50;;;8.30;99.90;;;;;;5018669;28;20269;-67
2022/12/29 01:06:51;;;;;;;2.97;2.20;;;8.30;99.90;;;;;;5024960;28;20527;-66
2022/12/29 01:12:03;;;;;;;13.40;6.83;;;8.30;99.90;;;;;;5020137;28;20469;-67
2022/12/29 01:14:28;;;;;;;51.23;29.77;;;8.20;99.90;;;;;;5022758;28;20431;-67
2022/12/29 01:16:55;;;;;;;3.73;2.03;;;8.30;99.90;;;;;;5025166;28;20402;-67
2022/12/29 01:19:21;;;;;;;18.83;8.60;;;8.20;99.90;;;;;;5023676;28;20264;-67
2022/12/29 01:21:47;;;;;;;15.17;7.73;;;8.20;99.90;;;;;;5013721;28;20407;-66
2022/12/29 01:24:13;;;;;;;5.70;3.37;;;8.20;99.90;;;;;;5014489;28;20408;-67
2022/12/29 01:26:39;;;;;;;22.67;14.57;;;8.20;99.90;;;;;;5018630;28;20208;-68
2022/12/29 01:29:05;;;;;;;3.47;2.33;;;8.30;99.90;;;;;;5027267;28;20454;-68
2022/12/29 01:31:30;;;;;;;10.63;6.03;;;8.30;99.90;;;;;;5018159;28;20196;-66
2022/12/29 01:33:56;;;;;;;6.00;3.80;;;8.30;99.90;;;;;;5018762;28;20410;-66
2022/12/29 01:36:22;;;;;;;3.07;2.20;;;8.30;99.90;;;;;;5018768;28;20259;-66
2022/12/29 01:38:50;;;;;;;13.20;8.13;;;8.30;99.90;;;;;;5021006;28;20247;-66
2022/12/29 01:41:17;;;;;;;24.47;14.43;;;8.30;99.90;;;;;;5024623;28;20523;-66
2022/12/29 01:43:52;;;;;;;3.93;3.60;;;8.30;99.90;;;;;;5001314;28;20540;-68
2022/12/29 01:46:35;;;;;;;2.13;1.60;;;8.30;99.90;;;;;;5021641;28;20767;-67
2022/12/29 01:49:24;;;;;;;1.60;1.50;;;8.30;99.90;;;;;;5020649;28;20424;-67
2022/12/29 01:51:51;;;;;;;9.47;3.87;;;8.30;99.90;;;;;;5005087;28;20462;-68
2022/12/29 01:54:23;;;;;;;9.27;5.97;;;8.30;99.90;;;;;;5020889;28;20400;-68
2022/12/29 01:56:52;;;;;;;3.40;2.30;;;8.30;99.90;;;;;;5024048;28;20501;-67
2022/12/29 01:59:22;;;;;;;5.77;3.60;;;8.30;99.90;;;;;;5023989;28;20415;-66
2022/12/29 02:01:48;;;;;;;2.33;2.00;;;8.30;99.90;;;;;;5018415;28;20829;-67
2022/12/29 02:04:14;;;;;;;3.67;3.30;;;8.20;99.90;;;;;;5018810;28;20802;-66
2022/12/29 02:07:07;;;;;;;8.23;5.83;;;8.30;99.90;;;;;;5024637;28;20770;-66
2022/12/29 02:09:33;;;;;;;2.60;2.23;;;8.30;99.90;;;;;;5020193;28;20462;-66
2022/12/29 02:12:00;;;;;;;3.23;2.93;;;8.20;99.90;;;;;;5018682;28;20905;-67
2022/12/29 02:14:26;;;;;;;3.87;2.87;;;8.20;99.90;;;;;;5022613;28;20673;-67
2022/12/29 02:17:14;;;;;;;2.30;2.10;;;8.20;99.90;;;;;;5023959;28;20446;-66
2022/12/29 02:20:08;;;;;;;4.53;3.03;;;8.20;99.90;;;;;;5001479;28;20209;-66
2022/12/29 02:22:55;;;;;;;3.03;1.80;;;8.20;99.90;;;;;;5020786;28;20438;-66
2022/12/29 02:25:39;;;;;;;5.87;3.40;;;8.20;99.90;;;;;;5025603;28;20428;-67
2022/12/29 02:28:51;;;;;;;3.83;2.13;;;8.20;99.90;;;;;;5013567;28;20530;-67
2022/12/29 02:31:28;;;;;;;2.97;2.23;;;8.20;99.90;;;;;;5016995;28;20773;-67
2022/12/29 02:34:12;;;;;;;3.13;1.80;;;8.20;99.90;;;;;;5021222;28;20469;-67
2022/12/29 02:36:51;;;;;;;2.17;1.97;;;8.30;99.90;;;;;;5013685;28;20495;-67
2022/12/29 02:39:32;;;;;;;28.97;15.70;;;8.30;99.90;;;;;;5021859;28;20502;-67
2022/12/29 02:42:08;;;;;;;10.33;6.53;;;8.30;99.90;;;;;;5019872;28;20819;-66
2022/12/29 02:45:01;;;;;;;2.17;1.97;;;8.40;99.90;;;;;;5025001;28;20419;-67
2022/12/29 02:47:56;;;;;;;3.80;1.80;;;8.40;99.90;;;;;;5027611;28;20451;-67
2022/12/29 02:50:34;;;;;;;2.80;1.97;;;8.50;99.90;;;;;;5023507;28;20419;-67
2022/12/29 02:53:04;;;;;;;2.43;1.93;;;8.50;99.90;;;;;;5022841;28;20494;-67
2022/12/29 02:55:30;;;;;;;1.50;1.40;;;8.60;99.90;;;;;;5038804;23;20488;-65
2022/12/29 02:58:21;;;;;;;2.00;1.60;;;8.60;99.90;;;;;;5024002;28;20419;-65
2022/12/29 03:01:08;;;;;;;2.30;2.03;;;8.60;99.90;;;;;;5004585;28;20179;-65
2022/12/29 03:04:00;;;;;;;10.60;5.50;;;8.60;99.90;;;;;;5016814;28;20408;-65
2022/12/29 03:06:51;;;;;;;8.53;5.50;;;8.80;99.90;;;;;;5002306;28;20414;-70
2022/12/29 03:09:36;;;;;;;5.73;3.20;;;9.00;99.90;;;;;;5005641;28;20435;-65
2022/12/29 03:18:24;;;;;;;2.27;2.07;;;9.00;99.90;;;;;;5007211;28;20424;-66
2022/12/29 03:20:56;;;;;;;2.30;2.00;;;9.00;99.90;;;;;;4992802;28;20401;-66
2022/12/29 03:23:23;;;;;;;5.13;2.67;;;9.00;99.90;;;;;;5008437;28;20419;-66
2022/12/29 03:25:54;;;;;;;2.87;1.93;;;9.00;99.90;;;;;;5006272;28;20436;-66
2022/12/29 03:28:27;;;;;;;1.90;1.60;;;9.00;99.90;;;;;;4994850;28;20464;-66
2022/12/29 03:30:53;;;;;;;3.30;1.77;;;9.10;99.90;;;;;;4992510;28;20811;-66
2022/12/29 03:33:23;;;;;;;4.30;2.70;;;9.10;99.90;;;;;;4999585;28;20451;-64
2022/12/29 03:35:53;;;;;;;9.03;5.50;;;9.10;99.90;;;;;;4992437;28;20760;-66
2022/12/29 03:38:28;;;;;;;3.37;3.07;;;9.10;99.90;;;;;;5000433;28;20408;-65
2022/12/29 03:41:00;;;;;;;1.37;1.23;;;9.20;99.90;;;;;;4992162;28;20406;-65
2022/12/29 03:43:27;;;;;;;2.30;1.47;;;9.20;99.90;;;;;;5000108;28;20919;-66
2022/12/29 03:45:53;;;;;;;3.47;1.70;;;9.20;99.90;;;;;;4997286;28;20433;-66
2022/12/29 03:48:19;;;;;;;7.70;4.30;;;9.20;99.90;;;;;;5003351;28;20451;-66
2022/12/29 03:50:45;;;;;;;5.27;3.03;;;9.20;99.90;;;;;;4997981;28;20435;-66
2022/12/29 03:53:10;;;;;;;6.70;3.10;;;9.20;99.90;;;;;;5004028;28;20259;-66
2022/12/29 03:55:36;;;;;;;4.40;2.20;;;9.30;99.90;;;;;;5000065;28;20234;-66
2022/12/29 03:58:02;;;;;;;1.40;1.30;;;9.30;99.90;;;;;;4997724;28;20257;-66
2022/12/29 04:00:28;;;;;;;1.77;1.60;;;9.30;99.90;;;;;;5000082;28;20178;-66
2022/12/29 04:02:54;;;;;;;1.73;1.63;;;9.30;99.90;;;;;;4992125;28;20254;-67
2022/12/29 04:05:19;;;;;;;2.43;1.90;;;9.30;99.90;;;;;;4999811;28;20513;-67
2022/12/29 04:07:45;;;;;;;4.43;2.00;;;9.40;99.90;;;;;;5000024;28;20187;-67
2022/12/29 04:10:10;;;;;;;1.80;1.27;;;9.40;99.90;;;;;;5005561;28;20190;-67
2022/12/29 04:12:36;;;;;;;3.23;2.27;;;9.40;99.90;;;;;;4995505;28;20168;-67
2022/12/29 04:15:02;;;;;;;2.13;1.60;;;9.40;99.90;;;;;;4998583;28;20177;-66
2022/12/29 04:17:27;;;;;;;2.13;1.80;;;9.40;99.90;;;;;;5004648;28;20172;-66
2022/12/29 04:20:59;;;;;;;1.37;1.27;;;9.40;99.90;;;;;;5003125;28;20626;-67
2022/12/29 04:22:38;;;;;;;4.27;3.40;;;9.40;99.90;;;;;;4995306;28;20194;-66
2022/12/29 04:25:04;;;;;;;1.77;1.60;;;9.50;99.90;;;;;;5004050;28;20439;-66
2022/12/29 04:27:30;;;;;;;2.23;1.97;;;9.50;99.90;;;;;;5003452;28;20192;-67
2022/12/29 04:29:55;;;;;;;3.73;1.80;;;9.50;99.90;;;;;;4995810;28;20442;-66
2022/12/29 04:32:21;;;;;;;1.67;1.57;;;9.50;99.90;;;;;;5003784;28;20172;-67
2022/12/29 04:34:46;;;;;;;2.33;1.50;;;9.60;99.90;;;;;;5006362;28;20555;-66
2022/12/29 04:37:12;;;;;;;2.23;1.47;;;9.50;99.90;;;;;;5010805;28;20225;-66
2022/12/29 04:39:37;;;;;;;7.03;3.07;;;9.50;99.90;;;;;;5003410;28;20186;-67
2022/12/29 04:42:03;;;;;;;1.40;1.30;;;9.50;99.90;;;;;;5004049;28;20185;-66
2022/12/29 04:44:29;;;;;;;4.30;2.57;;;9.50;99.90;;;;;;5009516;28;20204;-66
2022/12/29 04:46:54;;;;;;;2.90;1.50;;;9.50;99.90;;;;;;5003232;28;20532;-66
2022/12/29 04:49:20;;;;;;;3.30;1.87;;;9.50;99.90;;;;;;4996242;28;20165;-66
2022/12/29 04:51:45;;;;;;;2.20;2.00;;;9.50;99.90;;;;;;5006826;28;20169;-66
2022/12/29 04:54:11;;;;;;;2.00;1.77;;;9.50;99.90;;;;;;4994056;28;20624;-66
2022/12/29 04:56:36;;;;;;;1.53;1.43;;;9.50;99.90;;;;;;4998402;28;20533;-66
2022/12/29 04:59:02;;;;;;;1.57;1.37;;;9.50;99.90;;;;;;4988441;28;20178;-66
2022/12/29 05:01:28;;;;;;;1.63;1.50;;;9.50;99.90;;;;;;4990322;28;20224;-67
2022/12/29 05:03:53;;;;;;;1.97;1.77;;;9.50;99.90;;;;;;4996376;28;20616;-67
2022/12/29 05:06:19;;;;;;;2.37;2.17;;;9.60;99.90;;;;;;5005734;28;20199;-66
2022/12/29 05:08:44;;;;;;;1.97;1.87;;;9.60;99.90;;;;;;4999240;28;20673;-65
2022/12/29 05:11:10;;;;;;;1.67;1.57;;;9.50;99.90;;;;;;5004537;28;20542;-68
2022/12/29 05:13:36;;;;;;;2.20;1.37;;;9.60;99.90;;;;;;4998573;28;20172;-66
2022/12/29 05:16:01;;;;;;;2.90;1.70;;;9.60;99.90;;;;;;5005984;28;20184;-66
2022/12/29 05:18:27;;;;;;;1.70;1.60;;;9.60;99.90;;;;;;4996212;28;20208;-66
2022/12/29 05:20:53;;;;;;;2.70;2.10;;;9.60;99.90;;;;;;5007534;28;20520;-66
2022/12/29 05:23:18;;;;;;;5.73;4.20;;;9.60;99.90;;;;;;4997736;28;20723;-66
2022/12/29 05:25:47;;;;;;;2.50;1.50;;;9.70;99.90;;;;;;5005966;28;20191;-66
2022/12/29 05:28:13;;;;;;;1.50;1.30;;;9.70;99.90;;;;;;4994496;28;20193;-65
2022/12/29 05:30:39;;;;;;;4.77;3.13;;;9.70;99.90;;;;;;4998406;28;20767;-66
2022/12/29 05:33:06;;;;;;;3.50;2.50;;;9.70;99.90;;;;;;5008362;28;20510;-66
2022/12/29 05:35:32;;;;;;;3.90;3.60;;;9.70;99.90;;;;;;5004264;28;20934;-65
2022/12/29 05:37:58;;;;;;;2.63;2.23;;;9.70;99.90;;;;;;4998722;28;20451;-65
2022/12/29 05:40:23;;;;;;;2.93;1.70;;;9.80;99.90;;;;;;5003258;28;20922;-66
2022/12/29 05:42:49;;;;;;;1.60;1.40;;;9.80;99.90;;;;;;5005206;28;20168;-66
2022/12/29 05:45:14;;;;;;;2.33;2.13;;;9.80;99.90;;;;;;5002946;28;20200;-66
2022/12/29 05:47:40;;;;;;;3.20;2.90;;;9.80;99.90;;;;;;4998690;28;20202;-66
2022/12/29 05:50:06;;;;;;;2.17;1.67;;;9.90;99.90;;;;;;5004647;28;20850;-66
2022/12/29 05:52:31;;;;;;;2.43;1.93;;;9.90;99.90;;;;;;5004054;28;20465;-67
2022/12/29 05:54:57;;;;;;;2.37;1.87;;;10.00;99.90;;;;;;5003617;28;20775;-67
2022/12/29 05:57:22;;;;;;;4.90;2.00;;;10.00;99.90;;;;;;5001857;28;20251;-66
2022/12/29 05:59:48;;;;;;;1.70;1.60;;;10.00;99.90;;;;;;4998670;28;20259;-66
2022/12/29 06:02:14;;;;;;;3.70;1.50;;;10.00;99.90;;;;;;4994708;28;20553;-66
2022/12/29 06:04:39;;;;;;;2.50;2.10;;;10.10;99.90;;;;;;5006701;28;20280;-66
2022/12/29 06:07:05;;;;;;;1.83;1.70;;;10.10;99.90;;;;;;5003171;28;20282;-66
2022/12/29 06:09:30;;;;;;;3.10;1.90;;;10.20;99.90;;;;;;5002761;28;20175;-66
2022/12/29 06:11:56;;;;;;;3.47;1.87;;;10.20;99.90;;;;;;5002811;28;20196;-66
2022/12/29 06:14:21;;;;;;;2.57;1.67;;;10.20;99.90;;;;;;4995522;28;20211;-66
2022/12/29 06:16:47;;;;;;;1.30;1.20;;;10.20;99.90;;;;;;5002016;28;20528;-66
2022/12/29 06:19:12;;;;;;;2.93;1.47;;;10.20;99.90;;;;;;5003938;28;20172;-66
2022/12/29 06:21:38;;;;;;;1.80;1.70;;;10.30;99.90;;;;;;5001591;28;20175;-66
2022/12/29 06:24:04;;;;;;;2.57;1.67;;;10.30;99.90;;;;;;4997915;28;20204;-65
2022/12/29 06:26:30;;;;;;;1.67;1.37;;;10.30;99.90;;;;;;4998996;28;20165;-66
2022/12/29 06:28:56;;;;;;;1.90;1.60;;;10.30;99.90;;;;;;4998529;28;20497;-65
2022/12/29 06:31:21;;;;;;;1.90;1.67;;;10.30;99.90;;;;;;5004688;28;20263;-66
2022/12/29 06:33:47;;;;;;;3.83;1.70;;;10.30;99.90;;;;;;5004552;28;20179;-65
2022/12/29 06:36:13;;;;;;;1.50;1.40;;;10.40;99.90;;;;;;4996323;28;20177;-67
2022/12/29 06:38:38;;;;;;;2.07;1.70;;;10.40;99.90;;;;;;4997142;28;20226;-66
2022/12/29 06:41:04;;;;;;;3.03;1.40;;;10.40;99.90;;;;;;5005278;28;20187;-66
2022/12/29 06:43:30;;;;;;;1.87;1.60;;;10.50;99.90;;;;;;4998012;28;20244;-66
2022/12/29 06:45:56;;;;;;;3.13;1.40;;;10.50;99.90;;;;;;5006139;28;20201;-66
2022/12/29 06:48:21;;;;;;;2.00;1.60;;;10.50;99.90;;;;;;5002912;28;20450;-67
2022/12/29 06:50:47;;;;;;;1.33;1.23;;;10.50;99.90;;;;;;5004541;28;20415;-66
2022/12/29 06:53:12;;;;;;;2.90;1.60;;;10.50;99.90;;;;;;5004124;28;20195;-66
2022/12/29 06:55:38;;;;;;;1.87;1.40;;;10.50;99.90;;;;;;4998054;28;20200;-67
2022/12/29 06:58:03;;;;;;;7.70;2.20;;;10.50;99.90;;;;;;5002466;28;20180;-66
2022/12/29 07:00:29;;;;;;;1.47;1.37;;;10.50;99.90;;;;;;4994441;28;20641;-66
2022/12/29 07:02:57;;;;;;;2.70;1.47;;;10.50;99.90;;;;;;5002297;28;20165;-67
2022/12/29 07:05:24;;;;;;;2.80;1.63;;;10.40;99.90;;;;;;5000725;28;20188;-67
2022/12/29 07:07:50;;;;;;;1.83;1.63;;;10.50;99.90;;;;;;5001372;28;20546;-67
2022/12/29 07:10:17;;;;;;;1.20;1.10;;;10.40;99.90;;;;;;5007286;28;20431;-67
2022/12/29 07:12:42;;;;;;;2.47;1.83;;;10.30;99.90;;;;;;5003219;28;20470;-67
2022/12/29 07:15:08;;;;;;;2.47;2.10;;;10.30;99.90;;;;;;5006515;28;20276;-67
2022/12/29 07:17:34;;;;;;;1.77;1.20;;;10.30;99.90;;;;;;5003170;28;20744;-66
2022/12/29 07:19:59;;;;;;;2.23;1.90;;;10.30;99.90;;;;;;5006781;28;20414;-65
2022/12/29 07:22:25;;;;;;;2.20;1.20;;;10.30;99.90;;;;;;5003964;28;20578;-67
2022/12/29 07:24:50;;;;;;;2.63;1.77;;;10.30;99.90;;;;;;4993545;28;20203;-65
2022/12/29 07:27:16;;;;;;;1.60;1.20;;;10.30;99.90;;;;;;4998528;28;20591;-66
2022/12/29 07:29:41;;;;;;;1.60;1.50;;;10.30;99.90;;;;;;5004257;28;20200;-66
2022/12/29 07:32:07;;;;;;;2.57;2.37;;;10.30;99.90;;;;;;5006298;28;20179;-66
2022/12/29 07:34:33;;;;;;;3.77;1.50;;;10.30;99.90;;;;;;5002733;28;20196;-66
2022/12/29 07:36:58;;;;;;;4.30;1.70;;;10.20;99.90;;;;;;4998227;28;20186;-66
2022/12/29 07:39:24;;;;;;;1.80;1.20;;;10.30;99.90;;;;;;4995484;28;20188;-66
2022/12/29 07:41:49;;;;;;;1.10;1.00;;;10.30;99.90;;;;;;5001164;28;20694;-67
2022/12/29 07:44:15;;;;;;;1.47;1.20;;;10.20;99.90;;;;;;5006155;28;20239;-66
2022/12/29 07:46:40;;;;;;;1.30;1.10;;;10.20;99.90;;;;;;5002145;28;20176;-66
2022/12/29 07:49:06;;;;;;;1.50;1.40;;;10.20;99.90;;;;;;4987873;28;20184;-67
2022/12/29 07:51:32;;;;;;;1.40;1.30;;;10.30;99.90;;;;;;5007151;28;20250;-67
2022/12/29 07:54:00;;;;;;;1.60;1.50;;;10.30;99.90;;;;;;5008139;28;20477;-67
2022/12/29 07:56:25;;;;;;;1.60;1.50;;;10.30;99.90;;;;;;5005443;28;20184;-66
2022/12/29 07:58:51;;;;;;;1.57;1.40;;;10.30;99.90;;;;;;5003356;28;20447;-67
2022/12/29 08:01:17;;;;;;;1.10;1.00;;;10.40;99.90;;;;;;5009998;28;20439;-68
2022/12/29 08:03:42;;;;;;;1.73;1.53;;;10.40;99.90;;;;;;5004135;28;20180;-66
2022/12/29 08:06:12;;;;;;;1.80;1.23;;;10.50;99.90;;;;;;5001254;28;20267;-67
2022/12/29 08:08:38;;;;;;;1.10;1.10;;;10.50;99.90;;;;;;4999516;28;20528;-67
2022/12/29 08:11:03;;;;;;;1.70;1.30;;;10.50;99.90;;;;;;5006383;28;20450;-68
2022/12/29 08:13:29;;;;;;;1.40;1.30;;;10.50;99.90;;;;;;5005782;28;20177;-68
2022/12/29 08:15:57;;;;;;;2.47;1.20;;;10.50;99.90;;;;;;5023253;28;20652;-68
2022/12/29 08:18:22;;;;;;;2.77;1.20;;;10.50;99.90;;;;;;5003513;28;20184;-66
2022/12/29 08:20:48;;;;;;;1.37;1.27;;;10.60;99.90;;;;;;5001480;28;20798;-67
2022/12/29 08:23:13;;;;;;;1.17;1.10;;;10.60;99.90;;;;;;4993202;28;20183;-67
2022/12/29 08:25:39;;;;;;;1.63;1.53;;;10.60;99.90;;;;;;5006529;28;20294;-67
2022/12/29 08:28:05;;;;;;;1.50;1.30;;;10.60;99.90;;;;;;5005630;28;20193;-68
2022/12/29 08:30:30;;;;;;;1.40;1.20;;;10.60;99.90;;;;;;5002495;28;20280;-68
2022/12/29 08:32:56;;;;;;;1.20;1.10;;;10.60;99.90;;;;;;5007474;28;20168;-67
2022/12/29 08:35:21;;;;;;;2.37;1.73;;;10.60;99.90;;;;;;5002826;28;20197;-67
2022/12/29 08:37:47;;;;;;;2.03;1.70;;;10.60;99.90;;;;;;5009519;28;20651;-67
2022/12/29 08:40:13;;;;;;;1.70;1.60;;;10.60;99.90;;;;;;5002748;28;20201;-66
2022/12/29 08:42:39;;;;;;;1.70;1.30;;;10.60;99.90;;;;;;4990758;28;20204;-68
2022/12/29 08:45:05;;;;;;;2.30;1.87;;;10.60;99.90;;;;;;5002478;28;20501;-66
2022/12/29 08:47:31;;;;;;;1.90;1.50;;;10.60;99.90;;;;;;5002209;28;20464;-66
2022/12/29 08:49:56;;;;;;;3.00;1.37;;;10.60;99.90;;;;;;5002301;28;20482;-67
2022/12/29 08:52:22;;;;;;;1.87;1.67;;;10.60;99.90;;;;;;5003249;28;20635;-68
2022/12/29 08:54:48;;;;;;;1.63;1.33;;;10.70;99.90;;;;;;5008511;28;20754;-66
2022/12/29 08:57:14;;;;;;;6.20;1.40;;;10.90;99.90;;;;;;5002194;28;20510;-67
2022/12/29 08:59:39;;;;;;;1.97;1.60;;;11.00;99.90;;;;;;5004795;28;20177;-67
2022/12/29 09:02:05;;;;;;;1.90;1.40;;;11.10;99.90;;;;;;5008526;28;20673;-67
2022/12/29 09:04:31;;;;;;;2.80;1.37;;;11.00;99.90;;;;;;5001497;28;20288;-67
2022/12/29 09:06:57;;;;;;;1.67;1.20;;;11.00;99.90;;;;;;4999125;28;20515;-67
2022/12/29 09:09:22;;;;;;;1.57;1.47;;;11.10;99.90;;;;;;4993862;28;20706;-67
2022/12/29 09:11:48;;;;;;;2.03;1.40;;;11.10;99.90;;;;;;5004963;28;20222;-67
2022/12/29 09:14:14;;;;;;;1.73;1.30;;;11.10;99.90;;;;;;5003519;28;20291;-67
2022/12/29 09:19:24;;;;;;;6.13;1.40;;;11.10;99.90;;;;;;5004327;28;20276;-67
2022/12/29 09:21:49;;;;;;;2.40;1.33;;;11.10;99.90;;;;;;5005019;28;20502;-67
2022/12/29 09:24:15;;;;;;;2.43;1.77;;;11.20;99.90;;;;;;5004787;28;20203;-70
2022/12/29 09:26:40;;;;;;;1.60;1.40;;;11.20;99.90;;;;;;5003073;28;20180;-69
2022/12/29 09:29:06;;;;;;;2.10;1.30;;;11.20;99.90;;;;;;4997802;28;20634;-67
2022/12/29 09:31:32;;;;;;;1.33;1.23;;;11.20;99.90;;;;;;5001976;28;20496;-68
2022/12/29 09:33:57;;;;;;;1.50;1.40;;;11.30;99.90;;;;;;4997774;28;20272;-67
2022/12/29 09:36:23;;;;;;;1.87;1.47;;;11.30;99.90;;;;;;5002335;28;20622;-67
2022/12/29 09:38:48;;;;;;;1.63;1.30;;;11.30;99.90;;;;;;5001703;28;20234;-67
2022/12/29 09:41:22;;;;;;;1.20;1.10;;;11.30;99.90;;;;;;5004863;28;20180;-67
2022/12/29 09:44:15;;;;;;;1.30;1.20;;;11.30;99.90;;;;;;4992771;28;20549;-67
2022/12/29 09:46:47;;;;;;;1.67;1.53;;;11.30;99.90;;;;;;5000995;28;20430;-67
2022/12/29 09:49:28;;;;;;;1.60;1.50;;;11.30;99.90;;;;;;5007839;28;20415;-67
2022/12/29 09:52:00;;;;;;;1.10;1.00;;;11.30;99.90;;;;;;4998694;28;20400;-67
2022/12/29 09:54:49;;;;;;;3.93;1.50;;;11.40;99.90;;;;;;5001671;28;20555;-67
2022/12/29 09:57:21;;;;;;;1.40;1.30;;;11.50;99.90;;;;;;5049180;23;20504;-66
2022/12/29 09:59:50;;;;;;;1.53;1.10;;;11.60;99.90;;;;;;5031817;28;20823;-67
2022/12/29 10:02:34;;;;;;;1.17;1.07;;;11.60;99.90;;;;;;5032106;28;20449;-68
2022/12/29 10:05:00;;;;;;;2.43;1.33;;;11.60;99.90;;;;;;5014001;28;20464;-67
2022/12/29 10:07:38;;;;;;;3.33;1.17;;;11.70;99.90;;;;;;5031624;28;20481;-67
2022/12/29 10:10:22;;;;;;;1.63;1.20;;;11.70;99.90;;;;;;5032018;28;20484;-67
2022/12/29 10:12:53;;;;;;;1.50;1.23;;;11.70;99.90;;;;;;5029826;28;20448;-67
2022/12/29 10:15:37;;;;;;;4.13;1.60;;;11.70;99.90;;;;;;5031853;28;20417;-68
2022/12/29 10:18:46;;;;;;;1.37;1.27;;;11.60;99.90;;;;;;5031570;28;20418;-67
2022/12/29 10:21:40;;;;;;;3.37;1.50;;;11.60;99.90;;;;;;5028912;28;20415;-67
2022/12/29 10:24:10;;;;;;;2.47;1.53;;;11.60;99.90;;;;;;5024945;28;20434;-67
2022/12/29 10:26:43;;;;;;;1.47;1.20;;;11.60;99.90;;;;;;5031704;28;20544;-67
2022/12/29 10:29:15;;;;;;;3.03;1.67;;;11.70;99.90;;;;;;5037625;28;20607;-67
2022/12/29 10:31:45;;;;;;;1.93;1.47;;;11.80;99.90;;;;;;5031110;28;20415;-67
2022/12/29 10:34:42;;;;;;;1.97;1.40;;;11.80;99.90;;;;;;5031993;28;20402;-67
2022/12/29 10:37:37;;;;;;;2.60;1.30;;;12.00;99.90;;;;;;5011291;28;20522;-67
2022/12/29 10:40:14;;;;;;;3.07;1.70;;;12.20;99.90;;;;;;5028959;28;20425;-67
2022/12/29 10:42:44;;;;;;;3.53;1.10;;;12.30;99.90;;;;;;5023342;28;20533;-67
2022/12/29 10:45:16;;;;;;;5.50;1.30;;;12.40;99.90;;;;;;5031022;28;20497;-67
2022/12/29 10:48:13;;;;;;;1.40;1.30;;;12.50;99.90;;;;;;5028769;28;20472;-68
2022/12/29 10:50:42;;;;;;;3.33;1.37;;;12.50;99.90;;;;;;5031164;28;20418;-67
2022/12/29 10:53:29;;;;;;;1.60;0.93;;;12.50;99.90;;;;;;5026988;28;20406;-68
2022/12/29 10:55:56;;;;;;;2.07;1.43;;;12.50;99.90;;;;;;5010488;28;20454;-68
2022/12/29 10:58:24;;;;;;;1.77;1.23;;;12.50;99.90;;;;;;5031261;28;20441;-68
2022/12/29 11:00:53;;;;;;;1.23;1.13;;;12.50;99.90;;;;;;5031105;28;20421;-68
2022/12/29 11:03:36;;;;;;;2.07;1.10;;;12.50;99.90;;;;;;5031012;28;20520;-67
2022/12/29 11:06:17;;;;;;;3.70;1.50;;;12.50;99.90;;;;;;5025496;28;20806;-68
2022/12/29 11:09:09;;;;;;;2.20;1.30;;;12.50;99.90;;;;;;5025139;28;20461;-67
2022/12/29 11:11:36;;;;;;;1.10;1.00;;;12.50;99.90;;;;;;5030570;28;20416;-67
2022/12/29 11:14:18;;;;;;;1.73;1.27;;;12.60;99.90;;;;;;5030576;28;20472;-68
2022/12/29 11:16:45;;;;;;;1.57;1.17;;;12.50;99.90;;;;;;5023190;28;20886;-67
2022/12/29 11:19:24;;;;;;;1.60;1.50;;;12.60;99.90;;;;;;5030612;28;20426;-66
2022/12/29 11:21:51;;;;;;;1.50;1.40;;;12.60;99.90;;;;;;5024069;28;20450;-67
2022/12/29 11:24:20;;;;;;;1.60;1.23;;;12.50;99.90;;;;;;5030998;28;20461;-67
2022/12/29 11:26:45;;;;;;;2.37;1.30;;;12.50;99.90;;;;;;5029860;28;20806;-67
2022/12/29 11:29:14;;;;;;;1.43;1.33;;;12.50;99.90;;;;;;5029994;28;20450;-68
2022/12/29 11:31:43;;;;;;;1.47;1.30;;;12.60;99.90;;;;;;5022601;28;20172;-67
2022/12/29 11:34:27;;;;;;;1.17;1.07;;;12.60;99.90;;;;;;5030636;28;20409;-67
2022/12/29 11:37:06;;;;;;;1.70;1.53;;;12.60;99.90;;;;;;5024336;28;20418;-67
2022/12/29 11:39:43;;;;;;;4.03;2.20;;;12.50;99.90;;;;;;5030130;28;20438;-67
2022/12/29 11:42:24;;;;;;;3.23;1.50;;;12.50;99.90;;;;;;5012599;28;20414;-67
2022/12/29 11:44:51;;;;;;;2.00;1.20;;;12.50;99.90;;;;;;5028198;28;20490;-67
2022/12/29 11:47:32;;;;;;;3.80;1.13;;;12.40;99.90;;;;;;5030330;28;20793;-73
2022/12/29 11:50:00;;;;;;;1.20;1.10;;;12.30;99.90;;;;;;5030235;28;20931;-67
2022/12/29 11:52:29;;;;;;;2.23;1.10;;;12.30;99.90;;;;;;5030443;28;20422;-68
2022/12/29 11:54:56;;;;;;;2.23;1.33;;;12.30;99.90;;;;;;5030863;28;20406;-68
2022/12/29 11:57:23;;;;;;;1.07;0.97;;;12.30;99.90;;;;;;5030167;28;20946;-66
2022/12/29 11:59:55;;;;;;;1.13;1.07;;;12.20;99.90;;;;;;5029861;28;20411;-67
2022/12/29 12:02:32;;;;;;;1.23;0.90;;;12.10;99.90;;;;;;5029113;28;20634;-67
2022/12/29 12:05:35;;;;;;;1.00;0.90;;;12.10;99.90;;;;;;5030290;28;20402;-67
2022/12/29 12:08:17;;;;;;;1.33;1.23;;;12.00;99.90;;;;;;5025157;28;20858;-67
2022/12/29 12:11:04;;;;;;;0.93;0.93;;;11.80;99.90;;;;;;5026605;28;20525;-71
2022/12/29 12:13:47;;;;;;;0.80;0.80;;;11.70;99.90;;;;;;5028496;28;20405;-66
2022/12/29 12:16:18;;;;;;;1.47;1.03;;;11.50;99.90;;;;;;5030172;28;20513;-66
2022/12/29 12:19:16;;;;;;;1.10;1.00;;;11.30;99.90;;;;;;5029089;28;20402;-66
2022/12/29 12:21:46;;;;;;;6.93;3.57;;;11.20;99.90;;;;;;5007578;28;20428;-67
2022/12/29 12:24:39;;;;;;;27.07;14.47;;;11.10;99.90;;;;;;5030175;28;20789;-63
2022/12/29 12:27:28;;;;;;;4.00;3.50;;;11.10;99.90;;;;;;5025532;28;20422;-66
2022/12/29 12:30:21;;;;;;;1.20;1.10;;;11.00;99.90;;;;;;5030023;28;20525;-67
2022/12/29 12:33:23;;;;;;;1.23;0.80;;;11.00;99.90;;;;;;5024752;28;20398;-67
2022/12/29 12:36:00;;;;;;;0.80;0.80;;;11.00;99.90;;;;;;5029619;28;20424;-66
2022/12/29 12:38:47;;;;;;;1.63;0.97;;;10.90;99.90;;;;;;5032269;28;20450;-67
2022/12/29 12:41:30;;;;;;;0.70;0.70;;;10.90;99.90;;;;;;5033587;28;20414;-67
2022/12/29 12:44:10;;;;;;;1.20;1.10;;;10.90;99.90;;;;;;5032278;28;20430;-66
2022/12/29 12:47:00;;;;;;;6.50;0.90;;;10.90;99.90;;;;;;5033262;28;20457;-67
2022/12/29 12:49:32;;;;;;;0.70;0.70;;;10.90;99.90;;;;;;5033480;28;20430;-66
2022/12/29 12:52:40;;;;;;;0.83;0.83;;;10.90;99.90;;;;;;5029389;28;20422;-67
2022/12/29 12:55:27;;;;;;;1.10;0.80;;;10.90;99.90;;;;;;5029995;28;20418;-67
2022/12/29 12:58:15;;;;;;;1.10;1.00;;;10.80;99.90;;;;;;5027402;28;20414;-69
2022/12/29 13:00:59;;;;;;;2.37;0.80;;;10.80;99.90;;;;;;5019842;28;20797;-67
2022/12/29 13:03:43;;;;;;;1.37;0.90;;;10.80;99.90;;;;;;5033460;28;20413;-67
2022/12/29 13:06:55;;;;;;;2.07;1.10;;;10.80;99.90;;;;;;5033678;28;20449;-68
2022/12/29 13:09:43;;;;;;;2.67;0.80;;;10.80;99.90;;;;;;5022681;28;20461;-68
2022/12/29 13:12:23;;;;;;;2.60;1.20;;;10.70;99.90;;;;;;5033678;28;20406;-68
2022/12/29 13:15:22;;;;;;;1.83;0.70;;;10.70;99.90;;;;;;5023888;28;20501;-67
2022/12/29 13:17:57;;;;;;;6.13;0.90;;;10.70;99.90;;;;;;5018365;28;20421;-67
2022/12/29 13:20:46;;;;;;;3.87;1.40;;;10.70;99.90;;;;;;5032895;28;20531;-66
2022/12/29 13:23:16;;;;;;;1.53;1.43;;;10.80;99.90;;;;;;5029315;28;20402;-67
2022/12/29 13:25:57;;;;;;;1.57;1.47;;;10.80;99.90;;;;;;5021763;28;20480;-67
2022/12/29 13:28:56;;;;;;;3.40;1.10;;;10.80;99.90;;;;;;5025215;28;20454;-67
2022/12/29 13:31:34;;;;;;;1.47;1.23;;;10.70;99.90;;;;;;5032237;28;20477;-67
2022/12/29 13:34:12;;;;;;;1.00;1.00;;;10.70;99.90;;;;;;5032925;28;20402;-67
2022/12/29 13:36:45;;;;;;;1.10;1.00;;;10.70;99.90;;;;;;5032843;28;20792;-67
2022/12/29 13:39:20;;;;;;;1.67;1.00;;;10.60;99.90;;;;;;5026956;28;20414;-68
2022/12/29 13:41:50;;;;;;;1.53;1.30;;;10.60;99.90;;;;;;5025423;28;20402;-67
2022/12/29 13:44:23;;;;;;;1.33;1.23;;;10.70;99.90;;;;;;5032665;28;20774;-69
2022/12/29 13:46:50;;;;;;;2.03;1.30;;;10.70;99.90;;;;;;5019907;28;20424;-67
2022/12/29 13:49:21;;;;;;;2.37;1.50;;;10.60;99.90;;;;;;5032008;28;20458;-67